Time;durP1;ratioP1;P1;durP2;ratioP2;P2;SDS_P1;SDS_P2;PMS_P1;PMS_P2;Temp;Humidity;BMP_temperature;BMP_pressure;BME280_temperature;BME280_humidity;BME280_pressure;Samples;Min_cycle;Max_cycle;Signal;HPM_P1;HPM_P2
2023/12/09 00:00:46;;;;;;;;;;;;;;;-1.75;98.47;100167.92;134228;1298;22926;-82
2023/12/09 00:03:46;;;;;;;;;;;;;;;-1.73;98.49;100170.92;134226;1301;24034;-81
2023/12/09 00:06:47;;;;;;;;;;;;;;;-1.70;98.46;100173.19;134204;1289;22640;-84
2023/12/09 00:09:49;;;;;;;;;;;;;;;-1.67;98.55;100174.05;134230;1294;22425;-86
2023/12/09 00:12:49;;;;;;;;;;;;;;;-1.67;98.33;100170.21;134226;1298;22477;-82
2023/12/09 00:15:50;;;;;;;;;;;;;;;-1.66;98.31;100166.55;134202;1298;22455;-81
2023/12/09 00:18:50;;;;;;;;;;;;;;;-1.64;98.36;100168.13;134242;1298;22494;-84
2023/12/09 00:21:50;;;;;;;;;;;;;;;-1.63;98.17;100169.30;134058;1301;22546;-81
2023/12/09 00:24:51;;;;;;;;;;;;;;;-1.63;98.13;100160.96;134229;1305;22447;-83
2023/12/09 00:27:52;;;;;;;;;;;;;;;-1.61;98.36;100156.73;134233;1298;22463;-82
2023/12/09 00:30:52;;;;;;;;;;;;;;;-1.60;98.20;100162.16;134220;1298;22454;-83
2023/12/09 00:33:52;;;;;;;;;;;;;;;-1.60;98.31;100163.74;134213;1305;22473;-82
2023/12/09 00:36:53;;;;;;;;;;;;;;;-1.60;98.09;100154.73;134214;1299;22460;-81
2023/12/09 00:39:53;;;;;;;;;;;;;;;-1.61;98.11;100155.62;134219;1298;23281;-82
2023/12/09 00:42:53;;;;;;;;;;;;;;;-1.58;98.19;100155.34;134218;1298;22455;-82
2023/12/09 00:45:54;;;;;;;;;;;;;;;-1.56;98.30;100155.92;134220;1298;22481;-82
2023/12/09 00:48:54;;;;;;;;;;;;;;;-1.54;98.25;100156.99;134230;1302;23225;-85
2023/12/09 00:51:54;;;;;;;;;;;;;;;-1.52;98.21;100156.91;134239;1304;23303;-83
2023/12/09 00:54:55;;;;;;;;;;;;;;;-1.52;98.05;100155.69;134223;1295;22424;-83
2023/12/09 00:57:55;;;;;;;;;;;;;;;-1.51;98.18;100150.23;134209;1305;22448;-83
2023/12/09 01:00:56;;;;;;;;;;;;;;;-1.48;98.26;100151.13;134163;1297;22502;-83
2023/12/09 01:03:56;;;;;;;;;;;;;;;-1.48;98.13;100149.02;134182;1304;22469;-83
2023/12/09 01:06:56;;;;;;;;;;;;;;;-1.47;98.02;100148.78;134189;1298;22462;-84
2023/12/09 01:09:57;;;;;;;;;;;;;;;-1.47;98.17;100151.92;134194;1298;22546;-87
2023/12/09 01:12:57;;;;;;;;;;;;;;;-1.47;98.09;100157.63;134208;1298;22448;-83
2023/12/09 01:15:58;;;;;;;;;;;;;;;-1.46;98.26;100165.05;134201;1298;22603;-82
2023/12/09 01:18:58;;;;;;;;;;;;;;;-1.46;98.24;100161.37;134236;1301;23589;-80
2023/12/09 01:21:59;;;;;;;;;;;;;;;-1.44;98.14;100164.92;134208;1301;22469;-83
2023/12/09 01:24:59;;;;;;;;;;;;;;;-1.42;98.17;100161.52;134227;1305;22506;-84
2023/12/09 01:28:00;;;;;;;;;;;;;;;-1.41;98.30;100163.17;134223;1301;22683;-81
2023/12/09 01:31:00;;;;;;;;;;;;;;;-1.41;97.96;100168.06;134196;1298;22452;-85
2023/12/09 01:34:01;;;;;;;;;;;;;;;-1.40;98.25;100165.17;134251;1305;22460;-82
2023/12/09 01:37:01;;;;;;;;;;;;;;;-1.36;98.44;100167.02;134200;1298;23291;-83
2023/12/09 01:40:02;;;;;;;;;;;;;;;-1.31;98.36;100167.48;134245;1298;23186;-83
2023/12/09 01:43:07;;;;;;;;;;;;;;;-1.29;98.43;100170.10;134255;1298;23145;-83
2023/12/09 01:46:10;;;;;;;;;;;;;;;-1.26;98.81;100172.52;134112;1298;22449;-84
2023/12/09 01:49:10;;;;;;;;;;;;;;;-1.23;99.04;100170.83;134198;1298;22457;-82
2023/12/09 01:52:11;;;;;;;;;;;;;;;-1.21;99.22;100169.98;134208;1297;22458;-83
2023/12/09 01:55:12;;;;;;;;;;;;;;;-1.19;99.47;100167.82;134164;1304;22475;-83
2023/12/09 01:58:12;;;;;;;;;;;;;;;-1.17;99.69;100173.02;134225;1298;23278;-84
2023/12/09 02:01:13;;;;;;;;;;;;;;;-1.15;99.98;100171.70;134234;1301;22434;-82
2023/12/09 02:04:14;;;;;;;;;;;;;;;-1.13;99.93;100171.42;134228;1305;22459;-84
2023/12/09 02:07:14;;;;;;;;;;;;;;;-1.10;100.00;100174.90;134227;1301;23221;-84
2023/12/09 02:10:16;;;;;;;;;;;;;;;-1.07;100.00;100169.36;134261;1295;22479;-82
2023/12/09 02:13:17;;;;;;;;;;;;;;;-1.06;100.00;100165.26;134213;1298;22483;-82
2023/12/09 02:16:23;;;;;;;;;;;;;;;-1.02;100.00;100164.70;134102;1298;186874;-85
2023/12/09 02:19:23;;;;;;;;;;;;;;;-0.99;100.00;100163.83;134230;1298;22647;-85
2023/12/09 02:22:24;;;;;;;;;;;;;;;-0.95;100.00;100163.38;134230;1304;23284;-83
2023/12/09 02:25:24;;;;;;;;;;;;;;;-0.90;100.00;100167.12;134203;1298;22433;-83
2023/12/09 02:28:28;;;;;;;;;;;;;;;-0.85;100.00;100170.16;134257;1293;22480;-83
2023/12/09 02:31:31;;;;;;;;;;;;;;;-0.82;100.00;100166.30;134217;1298;22459;-84
2023/12/09 02:34:36;;;;;;;;;;;;;;;-0.79;100.00;100162.98;134230;1302;23371;-83
2023/12/09 02:37:36;;;;;;;;;;;;;;;-0.77;100.00;100168.73;134158;1305;22458;-82
2023/12/09 02:40:38;;;;;;;;;;;;;;;-0.74;100.00;100167.34;134231;1298;22492;-83
2023/12/09 02:43:40;;;;;;;;;;;;;;;-0.72;100.00;100165.81;134170;1298;22459;-82
2023/12/09 02:46:41;;;;;;;;;;;;;;;-0.69;100.00;100167.59;134196;1286;22492;-83
2023/12/09 02:49:42;;;;;;;;;;;;;;;-0.68;100.00;100165.60;134229;1305;22485;-84
2023/12/09 02:52:42;;;;;;;;;;;;;;;-0.67;100.00;100165.37;134170;1292;22573;-83
2023/12/09 02:55:45;;;;;;;;;;;;;;;-0.65;100.00;100166.79;134170;1304;22521;-85
2023/12/09 02:58:45;;;;;;;;;;;;;;;-0.64;100.00;100167.10;134210;1298;22487;-85
2023/12/09 03:01:46;;;;;;;;;;;;;;;-0.63;100.00;100170.19;134197;1301;22445;-82
2023/12/09 03:04:46;;;;;;;;;;;;;;;-0.63;100.00;100167.20;134221;1289;22463;-83
2023/12/09 03:07:46;;;;;;;;;;;;;;;-0.62;100.00;100170.64;134210;1305;22998;-83
2023/12/09 03:10:47;;;;;;;;;;;;;;;-0.61;100.00;100169.88;134218;1305;22472;-84
2023/12/09 03:13:47;;;;;;;;;;;;;;;-0.61;100.00;100168.30;134241;1305;22453;-84
2023/12/09 03:16:48;;;;;;;;;;;;;;;-0.60;100.00;100169.62;134227;1299;22505;-82
2023/12/09 03:19:48;;;;;;;;;;;;;;;-0.59;100.00;100171.50;134224;1298;23342;-84
2023/12/09 03:22:49;;;;;;;;;;;;;;;-0.58;100.00;100173.85;134226;1305;22457;-83
2023/12/09 03:25:49;;;;;;;;;;;;;;;-0.58;100.00;100171.23;134206;1298;22436;-83
2023/12/09 03:28:49;;;;;;;;;;;;;;;-0.58;100.00;100166.19;134232;1301;23197;-84
2023/12/09 03:31:50;;;;;;;;;;;;;;;-0.57;100.00;100166.83;134232;1298;23849;-84
2023/12/09 03:34:50;;;;;;;;;;;;;;;-0.56;100.00;100167.27;134218;1301;22562;-84
2023/12/09 03:37:51;;;;;;;;;;;;;;;-0.56;100.00;100161.21;134227;1298;22475;-82
2023/12/09 03:40:51;;;;;;;;;;;;;;;-0.56;100.00;100160.70;134222;1305;24506;-83
2023/12/09 03:43:51;;;;;;;;;;;;;;;-0.57;100.00;100160.20;134243;1304;22505;-84
2023/12/09 03:46:52;;;;;;;;;;;;;;;-0.56;100.00;100154.61;134245;1304;22541;-82
2023/12/09 03:49:52;;;;;;;;;;;;;;;-0.55;100.00;100154.39;134221;1298;22508;-85
2023/12/09 03:52:53;;;;;;;;;;;;;;;-0.54;100.00;100155.88;134218;1301;22465;-84
2023/12/09 03:55:53;;;;;;;;;;;;;;;-0.54;100.00;100157.46;134211;1299;22474;-83
2023/12/09 03:58:54;;;;;;;;;;;;;;;-0.54;100.00;100158.64;134213;1305;22456;-82
2023/12/09 04:01:54;;;;;;;;;;;;;;;-0.54;100.00;100158.80;134250;1298;22463;-84
2023/12/09 04:04:54;;;;;;;;;;;;;;;-0.53;100.00;100161.55;134209;1298;22459;-87
2023/12/09 04:07:55;;;;;;;;;;;;;;;-0.53;100.00;100165.34;134227;1295;22457;-86
2023/12/09 04:10:55;;;;;;;;;;;;;;;-0.52;100.00;100158.37;134225;1299;22465;-84
2023/12/09 04:13:55;;;;;;;;;;;;;;;-0.52;100.00;100156.59;134208;1298;22588;-81
2023/12/09 04:16:56;;;;;;;;;;;;;;;-0.52;100.00;100158.69;134234;1305;23691;-82
2023/12/09 04:19:56;;;;;;;;;;;;;;;-0.53;100.00;100161.02;134226;1305;22486;-85
2023/12/09 04:22:57;;;;;;;;;;;;;;;-0.53;100.00;100161.20;134201;1301;23581;-83
2023/12/09 04:25:58;;;;;;;;;;;;;;;-0.54;100.00;100154.96;134215;1298;23391;-83
2023/12/09 04:28:58;;;;;;;;;;;;;;;-0.55;100.00;100155.75;134201;1301;22633;-84
2023/12/09 04:31:59;;;;;;;;;;;;;;;-0.55;100.00;100155.61;134192;1298;22493;-83
2023/12/09 04:34:59;;;;;;;;;;;;;;;-0.56;100.00;100154.09;134177;1305;24481;-82
2023/12/09 04:37:59;;;;;;;;;;;;;;;-0.57;100.00;100153.61;134219;1298;22482;-82
2023/12/09 04:41:01;;;;;;;;;;;;;;;-0.57;100.00;100154.17;134242;1298;22495;-82
2023/12/09 04:44:01;;;;;;;;;;;;;;;-0.59;100.00;100154.13;134186;1298;22540;-82
2023/12/09 04:47:02;;;;;;;;;;;;;;;-0.60;100.00;100150.55;134190;1298;22466;-83
2023/12/09 04:50:04;;;;;;;;;;;;;;;-0.62;100.00;100153.23;134211;1298;22491;-84
2023/12/09 04:53:07;;;;;;;;;;;;;;;-0.60;100.00;100155.58;134189;1298;22464;-83
2023/12/09 04:56:08;;;;;;;;;;;;;;;-0.60;100.00;100152.95;134229;1305;23232;-84
2023/12/09 04:59:09;;;;;;;;;;;;;;;-0.61;100.00;100154.91;134200;1298;22696;-83
2023/12/09 05:02:09;;;;;;;;;;;;;;;-0.61;100.00;100151.66;134187;1298;22502;-83
2023/12/09 05:05:10;;;;;;;;;;;;;;;-0.62;100.00;100149.26;134144;1298;22435;-83
2023/12/09 05:08:10;;;;;;;;;;;;;;;-0.63;100.00;100149.84;134163;1298;22523;-83
2023/12/09 05:11:11;;;;;;;;;;;;;;;-0.64;100.00;100158.74;134176;1301;22449;-82
2023/12/09 05:14:11;;;;;;;;;;;;;;;-0.63;100.00;100159.77;134159;1301;22548;-84
2023/12/09 05:17:12;;;;;;;;;;;;;;;-0.64;100.00;100158.58;134135;1305;22456;-84
2023/12/09 05:20:15;;;;;;;;;;;;;;;-0.65;100.00;100153.27;134178;1292;22468;-84
2023/12/09 05:23:15;;;;;;;;;;;;;;;-0.66;100.00;100153.52;134194;1301;23423;-84
2023/12/09 05:26:26;;;;;;;;;;;;;;;-0.67;100.00;100151.15;134180;1299;22608;-82
2023/12/09 05:29:26;;;;;;;;;;;;;;;-0.68;100.00;100150.64;134134;1304;23239;-82
2023/12/09 05:32:26;;;;;;;;;;;;;;;-0.70;100.00;100148.70;134209;1305;22476;-84
2023/12/09 05:35:27;;;;;;;;;;;;;;;-0.70;100.00;100160.30;134170;1294;24439;-83
2023/12/09 05:38:27;;;;;;;;;;;;;;;-0.69;100.00;100159.05;134186;1305;23320;-84
2023/12/09 05:41:28;;;;;;;;;;;;;;;-0.69;100.00;100160.09;134183;1305;22449;-84
2023/12/09 05:44:28;;;;;;;;;;;;;;;-0.69;100.00;100158.54;134154;1305;22460;-85
2023/12/09 05:47:29;;;;;;;;;;;;;;;-0.70;100.00;100155.63;134178;1305;22457;-84
2023/12/09 05:50:29;;;;;;;;;;;;;;;-0.69;100.00;100158.70;134204;1298;22497;-83
2023/12/09 05:53:29;;;;;;;;;;;;;;;-0.70;100.00;100157.19;134228;1301;22531;-87
2023/12/09 05:56:30;;;;;;;;;;;;;;;-0.70;100.00;100158.94;134194;1295;22445;-83
2023/12/09 05:59:30;;;;;;;;;;;;;;;-0.69;100.00;100159.08;134185;1305;22474;-82
2023/12/09 06:02:31;;;;;;;;;;;;;;;-0.71;100.00;100152.21;134181;1298;22441;-83
2023/12/09 06:05:33;;;;;;;;;;;;;;;-0.72;100.00;100157.30;134182;1299;22487;-83
2023/12/09 06:08:34;;;;;;;;;;;;;;;-0.72;100.00;100160.45;134163;1292;22449;-84
2023/12/09 06:11:34;;;;;;;;;;;;;;;-0.72;100.00;100159.06;134151;1305;22449;-85
2023/12/09 06:14:37;;;;;;;;;;;;;;;-0.72;100.00;100166.52;134185;1305;22495;-84
2023/12/09 06:17:38;;;;;;;;;;;;;;;-0.72;100.00;100165.79;134203;1305;22442;-84
2023/12/09 06:20:38;;;;;;;;;;;;;;;-0.72;100.00;100162.35;134159;1299;22963;-82
2023/12/09 06:23:39;;;;;;;;;;;;;;;-0.72;100.00;100168.30;134200;1295;22507;-81
2023/12/09 06:26:43;;;;;;;;;;;;;;;-0.73;100.00;100168.35;134194;1301;22453;-83
2023/12/09 06:29:45;;;;;;;;;;;;;;;-0.74;100.00;100159.90;134209;1299;23265;-84
2023/12/09 06:32:45;;;;;;;;;;;;;;;-0.75;100.00;100155.81;134100;1298;22480;-83
2023/12/09 06:35:46;;;;;;;;;;;;;;;-0.75;100.00;100156.30;134191;1298;23810;-83
2023/12/09 06:38:46;;;;;;;;;;;;;;;-0.75;100.00;100155.77;134129;1298;22477;-81
2023/12/09 06:41:48;;;;;;;;;;;;;;;-0.75;100.00;100157.30;134157;1301;22538;-82
2023/12/09 06:44:48;;;;;;;;;;;;;;;-0.73;100.00;100165.39;134182;1305;22575;-82
2023/12/09 06:47:53;;;;;;;;;;;;;;;-0.72;100.00;100166.21;134169;1299;22460;-79
2023/12/09 06:50:53;;;;;;;;;;;;;;;-0.72;100.00;100166.69;134185;1305;22535;-80
2023/12/09 06:53:55;;;;;;;;;;;;;;;-0.71;100.00;100171.31;134197;1305;22659;-84
2023/12/09 06:56:56;;;;;;;;;;;;;;;-0.71;100.00;100171.14;134171;1299;23458;-83
2023/12/09 06:59:57;;;;;;;;;;;;;;;-0.71;100.00;100165.39;134149;1305;22588;-82
2023/12/09 07:02:57;;;;;;;;;;;;;;;-0.71;100.00;100171.50;134176;1298;22479;-78
2023/12/09 07:05:58;;;;;;;;;;;;;;;-0.70;100.00;100172.33;134174;1299;25456;-82
2023/12/09 07:08:58;;;;;;;;;;;;;;;-0.69;100.00;100177.10;134179;1305;23223;-81
2023/12/09 07:11:59;;;;;;;;;;;;;;;-0.66;100.00;100176.92;134094;1305;23245;-81
2023/12/09 07:14:59;;;;;;;;;;;;;;;-0.63;100.00;100180.26;134121;1295;22467;-83
2023/12/09 07:17:59;;;;;;;;;;;;;;;-0.62;100.00;100175.64;134147;1298;22448;-82
2023/12/09 07:21:00;;;;;;;;;;;;;;;-0.61;100.00;100176.46;134171;1305;22536;-81
2023/12/09 07:24:00;;;;;;;;;;;;;;;-0.60;100.00;100176.41;134164;1301;25221;-82
2023/12/09 07:27:01;;;;;;;;;;;;;;;-0.60;100.00;100168.91;134161;1301;22454;-82
2023/12/09 07:30:01;;;;;;;;;;;;;;;-0.59;100.00;100173.37;134160;1305;22506;-83
2023/12/09 07:33:02;;;;;;;;;;;;;;;-0.57;100.00;100176.39;134177;1305;22466;-82
2023/12/09 07:36:03;;;;;;;;;;;;;;;-0.57;100.00;100174.66;134160;1305;23494;-82
2023/12/09 07:39:04;;;;;;;;;;;;;;;-0.56;100.00;100172.16;134167;1295;22456;-82
2023/12/09 07:42:05;;;;;;;;;;;;;;;-0.54;100.00;100171.87;134015;1304;22516;-82
2023/12/09 07:45:05;;;;;;;;;;;;;;;-0.51;100.00;100169.59;134154;1301;22473;-82
2023/12/09 07:48:07;;;;;;;;;;;;;;;-0.49;100.00;100168.44;134182;1305;23679;-83
2023/12/09 07:51:07;;;;;;;;;;;;;;;-0.46;100.00;100167.56;134191;1302;23806;-83
2023/12/09 07:54:07;;;;;;;;;;;;;;;-0.42;100.00;100162.25;134153;1301;22459;-82
2023/12/09 07:57:08;;;;;;;;;;;;;;;-0.39;100.00;100154.80;134135;1301;22472;-84
2023/12/09 08:00:09;;;;;;;;;;;;;;;-0.33;100.00;100155.48;134164;1305;23301;-83
2023/12/09 08:03:09;;;;;;;;;;;;;;;-0.30;100.00;100152.98;134171;1305;22510;-82
2023/12/09 08:06:11;;;;;;;;;;;;;;;-0.29;100.00;100156.20;134161;1305;22520;-83
2023/12/09 08:09:12;;;;;;;;;;;;;;;-0.28;100.00;100155.85;134159;1305;22584;-83
2023/12/09 08:12:12;;;;;;;;;;;;;;;-0.27;100.00;100155.75;134185;1301;22486;-85
2023/12/09 08:15:13;;;;;;;;;;;;;;;-0.26;100.00;100157.78;134164;1302;22475;-85
2023/12/09 08:18:13;;;;;;;;;;;;;;;-0.25;100.00;100151.09;134177;1299;22469;-85
2023/12/09 08:21:14;;;;;;;;;;;;;;;-0.19;100.00;100150.06;134144;1287;22470;-83
2023/12/09 08:24:15;;;;;;;;;;;;;;;-0.14;100.00;100147.66;134160;1301;22575;-82
2023/12/09 08:27:15;;;;;;;;;;;;;;;-0.12;100.00;100147.67;134147;1299;22465;-82
2023/12/09 08:30:15;;;;;;;;;;;;;;;-0.10;100.00;100151.73;134011;1305;22530;-82
2023/12/09 08:33:16;;;;;;;;;;;;;;;-0.10;100.00;100149.98;134156;1298;22467;-82
2023/12/09 08:36:16;;;;;;;;;;;;;;;-0.09;100.00;100147.83;134153;1299;22477;-82
2023/12/09 08:39:17;;;;;;;;;;;;;;;-0.07;100.00;100143.52;134148;1298;23289;-82
2023/12/09 08:42:18;;;;;;;;;;;;;;;-0.03;100.00;100148.81;134168;1298;22443;-82
2023/12/09 08:45:18;;;;;;;;;;;;;;;-0.02;100.00;100147.22;134147;1305;22465;-82
2023/12/09 08:48:19;;;;;;;;;;;;;;;0.02;100.00;100148.21;134168;1299;23211;-82
2023/12/09 08:51:19;;;;;;;;;;;;;;;0.23;100.00;100146.64;134139;1298;23409;-81
2023/12/09 08:54:20;;;;;;;;;;;;;;;0.67;100.00;100146.01;134178;1304;22465;-81
2023/12/09 08:57:20;;;;;;;;;;;;;;;0.62;100.00;100148.97;134169;1298;23622;-82
2023/12/09 09:00:22;;;;;;;;;;;;;;;0.54;100.00;100145.30;134181;1299;23229;-82
2023/12/09 09:03:23;;;;;;;;;;;;;;;0.48;100.00;100144.64;134217;1305;22446;-82
2023/12/09 09:06:23;;;;;;;;;;;;;;;0.44;100.00;100146.13;134216;1295;22585;-82
2023/12/09 09:09:24;;;;;;;;;;;;;;;0.38;100.00;100146.02;134213;1299;22454;-82
2023/12/09 09:12:25;;;;;;;;;;;;;;;0.32;100.00;100146.24;134201;1298;22448;-82
2023/12/09 09:15:27;;;;;;;;;;;;;;;0.30;100.00;100141.52;134222;1305;23196;-82
2023/12/09 09:18:28;;;;;;;;;;;;;;;0.27;100.00;100141.67;134218;1298;22463;-82
2023/12/09 09:21:28;;;;;;;;;;;;;;;0.28;100.00;100141.45;134218;1298;22463;-82
2023/12/09 09:24:28;;;;;;;;;;;;;;;0.27;100.00;100139.45;134217;1299;22446;-80
2023/12/09 09:27:29;;;;;;;;;;;;;;;0.26;100.00;100134.10;134228;1305;22481;-84
2023/12/09 09:30:32;;;;;;;;;;;;;;;0.29;100.00;100137.23;134189;1299;22491;-78
2023/12/09 09:33:32;;;;;;;;;;;;;;;0.31;100.00;100133.73;134225;1305;22496;-83
2023/12/09 09:36:33;;;;;;;;;;;;;;;0.32;100.00;100134.56;134236;1299;22475;-82
2023/12/09 09:39:33;;;;;;;;;;;;;;;0.30;100.00;100137.48;134213;1299;25139;-83
2023/12/09 09:42:37;;;;;;;;;;;;;;;0.32;100.00;100140.33;134188;1298;23516;-82
2023/12/09 09:45:38;;;;;;;;;;;;;;;0.33;100.00;100131.53;134209;1298;23105;-81
2023/12/09 09:48:39;;;;;;;;;;;;;;;0.36;100.00;100131.20;134183;1305;23658;-83
2023/12/09 09:51:43;;;;;;;;;;;;;;;0.37;100.00;100123.61;134199;1298;22485;-82
2023/12/09 09:54:44;;;;;;;;;;;;;;;0.41;100.00;100119.34;134167;1305;22471;-82
2023/12/09 09:57:44;;;;;;;;;;;;;;;0.46;100.00;100125.80;134161;1301;23197;-82
2023/12/09 10:00:45;;;;;;;;;;;;;;;0.49;100.00;100119.56;134202;1299;23385;-82
2023/12/09 10:03:46;;;;;;;;;;;;;;;0.52;100.00;100115.70;134160;1299;22585;-81
2023/12/09 10:06:47;;;;;;;;;;;;;;;0.52;100.00;100109.89;134222;1298;23196;-82
2023/12/09 10:09:48;;;;;;;;;;;;;;;0.56;100.00;100109.48;134196;1298;22483;-82
2023/12/09 10:12:49;;;;;;;;;;;;;;;0.60;100.00;100104.00;134172;1302;22467;-80
2023/12/09 10:15:49;;;;;;;;;;;;;;;0.62;100.00;100098.80;134178;1299;22473;-80
2023/12/09 10:18:49;;;;;;;;;;;;;;;0.63;100.00;100096.98;134160;1298;22484;-81
2023/12/09 10:21:50;;;;;;;;;;;;;;;0.63;100.00;100091.40;134160;1305;23054;-80
2023/12/09 10:24:51;;;;;;;;;;;;;;;0.61;100.00;100087.38;134186;1298;22461;-79
2023/12/09 10:27:51;;;;;;;;;;;;;;;0.59;100.00;100084.87;134175;1297;22543;-81
2023/12/09 10:30:52;;;;;;;;;;;;;;;0.57;100.00;100082.95;134209;1298;22439;-81
2023/12/09 10:33:52;;;;;;;;;;;;;;;0.54;100.00;100085.42;134163;1298;22497;-84
2023/12/09 10:36:55;;;;;;;;;;;;;;;0.54;100.00;100080.24;134162;1288;22474;-85
2023/12/09 10:39:56;;;;;;;;;;;;;;;0.53;100.00;100075.55;134146;1298;22481;-83
2023/12/09 10:42:57;;;;;;;;;;;;;;;0.53;100.00;100068.27;134143;1298;22458;-82
2023/12/09 10:46:00;;;;;;;;;;;;;;;0.54;100.00;100063.52;134138;1301;22481;-83
2023/12/09 10:49:01;;;;;;;;;;;;;;;0.57;100.00;100065.39;134153;1298;22458;-82
2023/12/09 10:52:01;;;;;;;;;;;;;;;0.59;100.00;100063.52;134054;1298;22453;-82
2023/12/09 10:55:02;;;;;;;;;;;;;;;0.62;100.00;100054.41;134153;1302;22490;-83
2023/12/09 10:58:04;;;;;;;;;;;;;;;0.66;100.00;100054.66;134193;1299;22462;-82
2023/12/09 11:01:07;;;;;;;;;;;;;;;0.69;100.00;100057.27;134145;1298;22592;-88
2023/12/09 11:04:08;;;;;;;;;;;;;;;0.71;100.00;100057.48;134169;1298;22935;-84
2023/12/09 11:07:09;;;;;;;;;;;;;;;0.72;100.00;100051.94;134179;1298;22477;-84
2023/12/09 11:10:10;;;;;;;;;;;;;;;0.74;100.00;100050.44;134186;1298;22480;-84
2023/12/09 11:13:11;;;;;;;;;;;;;;;0.78;100.00;100044.27;134139;1301;23089;-83
2023/12/09 11:16:13;;;;;;;;;;;;;;;0.80;100.00;100043.38;134158;1298;22447;-79
2023/12/09 11:19:17;;;;;;;;;;;;;;;0.83;100.00;100039.89;134135;1298;22506;-84
2023/12/09 11:22:18;;;;;;;;;;;;;;;0.84;100.00;100038.94;134194;1298;22470;-81
2023/12/09 11:25:22;;;;;;;;;;;;;;;0.87;100.00;100033.33;134163;1299;22472;-83
2023/12/09 11:28:26;;;;;;;;;;;;;;;0.89;100.00;100033.02;134169;1299;22463;-80
2023/12/09 11:31:37;;;;;;;;;;;;;;;0.88;100.00;100030.15;134183;1298;22495;-86
2023/12/09 11:34:37;;;;;;;;;;;;;;;0.86;100.00;100031.35;134118;1298;22571;-79
2023/12/09 11:37:38;;;;;;;;;;;;;;;0.87;100.00;100031.78;133987;1301;22432;-81
2023/12/09 11:40:39;;;;;;;;;;;;;;;0.89;100.00;100030.93;134119;1297;23970;-80
2023/12/09 11:43:40;;;;;;;;;;;;;;;0.93;100.00;100028.29;134062;1298;22487;-83
2023/12/09 11:46:42;;;;;;;;;;;;;;;0.97;100.00;100027.27;134145;1298;22468;-83
2023/12/09 11:49:45;;;;;;;;;;;;;;;1.02;100.00;100022.54;134159;1299;22511;-83
2023/12/09 11:52:46;;;;;;;;;;;;;;;1.05;100.00;100013.42;134167;1298;22463;-85
2023/12/09 11:55:47;;;;;;;;;;;;;;;1.06;100.00;100009.90;134198;1305;22442;-87
2023/12/09 11:58:47;;;;;;;;;;;;;;;1.06;100.00;100015.60;134130;1298;23543;-81
2023/12/09 12:01:51;;;;;;;;;;;;;;;1.06;100.00;100016.17;134148;1297;22474;-83
2023/12/09 12:04:51;;;;;;;;;;;;;;;1.08;100.00;100017.10;134146;1298;23522;-82
2023/12/09 12:07:55;;;;;;;;;;;;;;;1.10;100.00;100010.62;134013;1301;22513;-81
2023/12/09 12:10:56;;;;;;;;;;;;;;;1.15;100.00;100010.01;134102;1298;22587;-83
2023/12/09 12:13:56;;;;;;;;;;;;;;;1.18;100.00;100004.90;134186;1298;22627;-83
2023/12/09 12:16:57;;;;;;;;;;;;;;;1.21;100.00;99999.93;134134;1298;22462;-80
2023/12/09 12:19:57;;;;;;;;;;;;;;;1.22;100.00;99995.36;134181;1298;22608;-84
2023/12/09 12:22:58;;;;;;;;;;;;;;;1.19;100.00;99994.16;134154;1298;22470;-84
2023/12/09 12:25:58;;;;;;;;;;;;;;;1.17;100.00;99997.77;134174;1298;22540;-84
2023/12/09 12:28:59;;;;;;;;;;;;;;;1.18;100.00;99997.93;134201;1298;22485;-83
2023/12/09 12:31:59;;;;;;;;;;;;;;;1.16;100.00;100000.31;134135;1298;22470;-81
2023/12/09 12:35:02;;;;;;;;;;;;;;;1.14;100.00;99998.86;134184;1298;22467;-84
2023/12/09 12:38:03;;;;;;;;;;;;;;;1.12;100.00;99993.81;134169;1298;22585;-83
2023/12/09 12:41:03;;;;;;;;;;;;;;;1.12;100.00;99987.84;134175;1298;22486;-82
2023/12/09 12:44:04;;;;;;;;;;;;;;;1.12;100.00;99983.52;134168;1295;22471;-83
2023/12/09 12:47:05;;;;;;;;;;;;;;;1.09;100.00;99983.70;134146;1298;22479;-83
2023/12/09 12:50:06;;;;;;;;;;;;;;;1.11;100.00;99980.63;134171;1298;23161;-84
2023/12/09 12:53:06;;;;;;;;;;;;;;;1.12;100.00;99973.59;134144;1301;23633;-80
2023/12/09 12:56:07;;;;;;;;;;;;;;;1.11;100.00;99972.65;134159;1298;23184;-81
2023/12/09 12:59:08;;;;;;;;;;;;;;;1.10;100.00;99972.67;134079;1301;22514;-82
2023/12/09 13:02:08;;;;;;;;;;;;;;;1.10;100.00;99971.45;134131;1298;22456;-81
2023/12/09 13:05:09;;;;;;;;;;;;;;;1.10;100.00;99967.11;134150;1295;22429;-82
2023/12/09 13:08:09;;;;;;;;;;;;;;;1.11;100.00;99967.55;134209;1298;22478;-81
2023/12/09 13:11:10;;;;;;;;;;;;;;;1.12;100.00;99960.65;134097;1304;22509;-81
2023/12/09 13:14:13;;;;;;;;;;;;;;;1.14;100.00;99953.55;134171;1298;22425;-81
2023/12/09 13:17:24;;;;;;;;;;;;;;;1.17;100.00;99952.48;134177;1298;22443;-80
2023/12/09 13:20:24;;;;;;;;;;;;;;;1.20;100.00;99944.80;134182;1298;23810;-80
2023/12/09 13:23:26;;;;;;;;;;;;;;;1.23;100.00;99936.20;134144;1298;22547;-81
2023/12/09 13:26:27;;;;;;;;;;;;;;;1.24;100.00;99928.48;134160;1298;22514;-82
2023/12/09 13:29:28;;;;;;;;;;;;;;;1.23;100.00;99929.37;134167;1298;22459;-82
2023/12/09 13:32:28;;;;;;;;;;;;;;;1.23;100.00;99934.79;134160;1298;22577;-82
2023/12/09 13:35:29;;;;;;;;;;;;;;;1.24;100.00;99929.70;134168;1299;22473;-81
2023/12/09 13:38:29;;;;;;;;;;;;;;;1.21;99.98;99926.58;134112;1295;22610;-81
2023/12/09 13:41:30;;;;;;;;;;;;;;;1.18;99.99;99910.45;134206;1298;22477;-81
2023/12/09 13:44:32;;;;;;;;;;;;;;;1.15;99.99;99908.61;134181;1301;22461;-81
2023/12/09 13:47:33;;;;;;;;;;;;;;;1.11;100.00;99911.59;134181;1305;22543;-82
2023/12/09 13:50:34;;;;;;;;;;;;;;;1.06;99.99;99908.00;134198;1298;22458;-82
2023/12/09 13:53:35;;;;;;;;;;;;;;;1.01;99.92;99909.25;134193;1304;22447;-80
2023/12/09 13:56:36;;;;;;;;;;;;;;;0.98;99.99;99907.86;134178;1304;22468;-79
2023/12/09 13:59:36;;;;;;;;;;;;;;;0.97;99.97;99905.00;134232;1298;22438;-80
2023/12/09 14:02:37;;;;;;;;;;;;;;;0.94;100.00;99905.05;134171;1298;22471;-81
2023/12/09 14:05:38;;;;;;;;;;;;;;;0.91;100.00;99906.30;134222;1304;22557;-80
2023/12/09 14:08:38;;;;;;;;;;;;;;;0.88;100.00;99897.98;134045;1298;22459;-81
2023/12/09 14:11:42;;;;;;;;;;;;;;;0.82;100.00;99897.00;134054;1301;22471;-81
2023/12/09 14:18:59;;;;;;;;;;;;;;;0.69;100.00;99899.16;133898;1301;22859;-80
2023/12/09 14:22:04;;;;;;;;;;;;;;;0.63;100.00;99898.90;133818;1304;22479;-81
2023/12/09 14:25:07;;;;;;;;;;;;;;;0.57;100.00;99892.88;134011;1303;23216;-80
2023/12/09 14:28:15;;;;;;;;;;;;;;;0.53;100.00;99891.27;134061;1305;22476;-80
2023/12/09 14:31:33;;;;;;;;;;;;;;;0.49;100.00;99881.23;134039;1299;22476;-80
2023/12/09 14:34:48;;;;;;;;;;;;;;;0.47;100.00;99884.38;134044;1305;22428;-80
2023/12/09 14:38:12;;;;;;;;;;;;;;;0.46;100.00;99876.41;134031;1305;23143;-81
2023/12/09 14:41:13;;;;;;;;;;;;;;;0.44;100.00;99876.84;134050;1305;22604;-81
2023/12/09 14:44:13;;;;;;;;;;;;;;;0.42;100.00;99875.46;134043;1305;22517;-80
2023/12/09 14:47:32;;;;;;;;;;;;;;;0.39;100.00;99870.60;134064;1298;23044;-81
2023/12/09 14:50:39;;;;;;;;;;;;;;;0.36;100.00;99872.95;134085;1298;22493;-80
2023/12/09 14:53:39;;;;;;;;;;;;;;;0.32;100.00;99872.66;134117;1298;23265;-80
2023/12/09 14:56:40;;;;;;;;;;;;;;;0.29;100.00;99875.30;134080;1305;22479;-80
2023/12/09 14:59:52;;;;;;;;;;;;;;;0.28;100.00;99871.63;134015;1304;22515;-80
2023/12/09 15:03:07;;;;;;;;;;;;;;;0.25;100.00;99869.88;134051;1301;22526;-79
2023/12/09 15:06:14;;;;;;;;;;;;;;;0.23;100.00;99872.25;134154;1298;22458;-80
2023/12/09 15:09:32;;;;;;;;;;;;;;;0.22;100.00;99873.23;134233;1298;22488;-80
2023/12/09 15:12:38;;;;;;;;;;;;;;;0.20;100.00;99864.31;134191;1302;22457;-80
2023/12/09 15:15:44;;;;;;;;;;;;;;;0.19;100.00;99862.13;134228;1301;22569;-80
2023/12/09 15:18:46;;;;;;;;;;;;;;;0.17;100.00;99861.18;134185;1301;22459;-79
2023/12/09 15:21:55;;;;;;;;;;;;;;;0.16;100.00;99858.63;134207;1298;22472;-79